SCIE 241500Z 21010KT CAVOK 12/08 Q1020